X  Fermer Données météorologiques d'aviation de Metar     LEAL Alicante-Elche Miguel Hernández Airport
Température
14°C Température
5°C Point de rosée
55% Humidité



Vent
3 MPH
5 KM/H
1 M/S
3 KTS



Calme
N
Conditions actuelles

Clair Clair
Pression 1004.06 (hPa) - 29.65 (inHg)
Visibilité 6 (mile) - 9.7 (km)
Aéroport
Code de l'aéroport LEAL

Emplacement: Alicante-Elche Miguel Hernández Airport
Distance: 30 (mi)

Metar:
LEAL 260330Z VRB03KT CAVOK 14/05 Q1004 NOSIG

Temps: 26-02-2024 04:30 CET